AAL2764 KBOS-KPHL
Flight info
| Callsign | AAL2764 |
|---|---|
| Flight time | N/A |
| Altitude | 34000 |
| Route | SSOXS7 SSOXS Q167 RIFLE Q439 BRIGS JIIMS4 |
| Aircraft | A320/M-SDE3FGHIRWY/LB1 |
Departure
| Time | 2026-05-05 13:59 |
|---|---|
| Airport | Boston Logan International Airport (KBOS) |
Arrival
| Time | N/A |
|---|---|
| Airport | Philadelphia International Airport (KPHL) |
| Time | Latitude | Longitude | Altitude | Speed | Heading |
|---|---|---|---|---|---|
| 2026-05-05 13:40 | 42.36389 | -71.01668 | 25 ft | 0 kts | 191° |
| 2026-05-05 13:50 | 42.36401 | -71.01665 | 23 ft | 4 kts | 181° |
| 2026-05-05 13:50 | 42.36423 | -71.01672 | 25 ft | 4 kts | 125° |
| 2026-05-05 13:50 | 42.36426 | -71.01694 | 23 ft | 1 kts | 58° |
| 2026-05-05 13:51 | 42.36423 | -71.01700 | 23 ft | 0 kts | 58° |
| 2026-05-05 13:53 | 42.36430 | -71.01683 | 24 ft | 4 kts | 67° |
| 2026-05-05 13:53 | 42.36434 | -71.01606 | 23 ft | 14 kts | 86° |
| 2026-05-05 13:54 | 42.36416 | -71.01469 | 25 ft | 14 kts | 121° |
| 2026-05-05 13:54 | 42.36366 | -71.01354 | 24 ft | 13 kts | 108° |
| 2026-05-05 13:54 | 42.36416 | -71.01291 | 25 ft | 11 kts | 19° |
| 2026-05-05 13:54 | 42.36511 | -71.01246 | 24 ft | 17 kts | 19° |
| 2026-05-05 13:55 | 42.36629 | -71.01191 | 28 ft | 18 kts | 19° |
| 2026-05-05 13:55 | 42.36743 | -71.01141 | 27 ft | 17 kts | 7° |
| 2026-05-05 13:55 | 42.36843 | -71.01210 | 24 ft | 16 kts | 325° |
| 2026-05-05 13:55 | 42.36932 | -71.01170 | 25 ft | 14 kts | 46° |
| 2026-05-05 13:56 | 42.37004 | -71.01099 | 24 ft | 13 kts | 28° |
| 2026-05-05 13:56 | 42.37091 | -71.01039 | 22 ft | 17 kts | 27° |
| 2026-05-05 13:56 | 42.37211 | -71.00961 | 23 ft | 21 kts | 24° |
| 2026-05-05 13:56 | 42.37352 | -71.00878 | 22 ft | 22 kts | 22° |
| 2026-05-05 13:57 | 42.37484 | -71.00814 | 23 ft | 19 kts | 19° |
| 2026-05-05 13:57 | 42.37600 | -71.00760 | 25 ft | 16 kts | 19° |
| 2026-05-05 13:57 | 42.37695 | -71.00713 | 28 ft | 13 kts | 21° |
| 2026-05-05 13:57 | 42.37766 | -71.00679 | 29 ft | 10 kts | 19° |
| 2026-05-05 13:58 | 42.37835 | -71.00632 | 28 ft | 14 kts | 53° |
| 2026-05-05 13:58 | 42.37814 | -71.00486 | 30 ft | 19 kts | 112° |
| 2026-05-05 13:58 | 42.37760 | -71.00470 | 25 ft | 7 kts | 208° |
| 2026-05-05 13:58 | 42.37596 | -71.00572 | 27 ft | 59 kts | 201° |
| 2026-05-05 13:59 | 42.36071 | -71.01306 | 127 ft | 156 kts | 200° |
| 2026-05-05 13:59 | 42.35029 | -71.01753 | 701 ft | 161 kts | 190° |
| 2026-05-05 14:00 | 42.33024 | -71.00186 | 1868 ft | 201 kts | 134° |
| 2026-05-05 14:00 | 42.32183 | -70.98545 | 2136 ft | 225 kts | 132° |
| 2026-05-05 14:00 | 42.31295 | -70.96602 | 2364 ft | 262 kts | 115° |
| 2026-05-05 14:00 | 42.31042 | -70.94021 | 2714 ft | 297 kts | 88° |
| 2026-05-05 14:01 | 42.31327 | -70.91215 | 3478 ft | 304 kts | 79° |
| 2026-05-05 14:01 | 42.31818 | -70.88425 | 4411 ft | 306 kts | 75° |
| 2026-05-05 14:01 | 42.32366 | -70.85647 | 5366 ft | 305 kts | 76° |
| 2026-05-05 14:01 | 42.32839 | -70.82863 | 6340 ft | 304 kts | 84° |
| 2026-05-05 14:02 | 42.32885 | -70.80020 | 7177 ft | 303 kts | 100° |
| 2026-05-05 14:02 | 42.32390 | -70.77258 | 7945 ft | 302 kts | 117° |
| 2026-05-05 14:02 | 42.31508 | -70.74676 | 8751 ft | 304 kts | 121° |
| 2026-05-05 14:02 | 42.30551 | -70.72083 | 9579 ft | 304 kts | 127° |
| 2026-05-05 14:03 | 42.29298 | -70.69847 | 10305 ft | 301 kts | 141° |
| 2026-05-05 14:03 | 42.27686 | -70.68011 | 10706 ft | 311 kts | 154° |
| 2026-05-05 14:03 | 42.25708 | -70.66697 | 10891 ft | 325 kts | 167° |
| 2026-05-05 14:03 | 42.23462 | -70.65695 | 11142 ft | 345 kts | 167° |
| 2026-05-05 14:04 | 42.21181 | -70.64673 | 11696 ft | 353 kts | 167° |
| 2026-05-05 14:04 | 42.18842 | -70.63610 | 12342 ft | 358 kts | 167° |
| 2026-05-05 14:04 | 42.16451 | -70.62650 | 12956 ft | 359 kts | 174° |
| 2026-05-05 14:04 | 42.13975 | -70.62269 | 13632 ft | 357 kts | 184° |
| 2026-05-05 14:05 | 42.11511 | -70.62547 | 14229 ft | 355 kts | 195° |
| 2026-05-05 14:05 | 42.09139 | -70.63431 | 14867 ft | 353 kts | 202° |
| 2026-05-05 14:05 | 42.06806 | -70.64465 | 15499 ft | 355 kts | 201° |
| 2026-05-05 14:05 | 42.04451 | -70.65506 | 16142 ft | 357 kts | 201° |
| 2026-05-05 14:06 | 42.02074 | -70.66552 | 16775 ft | 359 kts | 201° |
| 2026-05-05 14:06 | 41.99731 | -70.67581 | 17423 ft | 361 kts | 201° |
| 2026-05-05 14:06 | 41.97329 | -70.68634 | 18022 ft | 363 kts | 200° |
| 2026-05-05 14:06 | 41.94888 | -70.69705 | 18566 ft | 367 kts | 200° |
| 2026-05-05 14:07 | 41.92485 | -70.70760 | 19070 ft | 370 kts | 200° |
| 2026-05-05 14:07 | 41.90024 | -70.71840 | 19573 ft | 373 kts | 200° |
| 2026-05-05 14:07 | 41.87542 | -70.72928 | 20074 ft | 377 kts | 200° |
| 2026-05-05 14:07 | 41.85046 | -70.74022 | 20558 ft | 380 kts | 201° |
| 2026-05-05 14:08 | 41.82614 | -70.75414 | 21025 ft | 381 kts | 210° |
| 2026-05-05 14:08 | 41.80287 | -70.77162 | 21483 ft | 385 kts | 211° |
| 2026-05-05 14:08 | 41.77949 | -70.78928 | 21924 ft | 388 kts | 210° |
| 2026-05-05 14:08 | 41.75581 | -70.80715 | 22388 ft | 391 kts | 210° |
| 2026-05-05 14:09 | 41.73199 | -70.82508 | 22822 ft | 395 kts | 210° |
| 2026-05-05 14:09 | 41.70794 | -70.84312 | 23243 ft | 398 kts | 210° |
| 2026-05-05 14:09 | 41.68365 | -70.86127 | 23645 ft | 401 kts | 210° |
| 2026-05-05 14:09 | 41.65924 | -70.87950 | 23985 ft | 403 kts | 210° |
| 2026-05-05 14:10 | 41.63465 | -70.89788 | 24339 ft | 406 kts | 210° |
| 2026-05-05 14:10 | 41.60998 | -70.91628 | 24689 ft | 408 kts | 210° |
| 2026-05-05 14:10 | 41.58511 | -70.93483 | 25030 ft | 410 kts | 210° |
| 2026-05-05 14:10 | 41.56107 | -70.95542 | 25349 ft | 412 kts | 218° |
| 2026-05-05 14:11 | 41.53985 | -70.98118 | 25669 ft | 414 kts | 227° |
| 2026-05-05 14:11 | 41.52215 | -71.01164 | 25983 ft | 418 kts | 235° |
| 2026-05-05 14:11 | 41.50612 | -71.04408 | 26290 ft | 420 kts | 235° |
| 2026-05-05 14:11 | 41.48993 | -71.07661 | 26606 ft | 422 kts | 235° |
| 2026-05-05 14:12 | 41.47357 | -71.10926 | 26905 ft | 424 kts | 235° |
| 2026-05-05 14:12 | 41.45710 | -71.14202 | 27199 ft | 426 kts | 235° |
| 2026-05-05 14:12 | 41.44053 | -71.17494 | 27466 ft | 428 kts | 235° |
| 2026-05-05 14:12 | 41.42390 | -71.20797 | 27748 ft | 431 kts | 235° |
| 2026-05-05 14:13 | 41.40717 | -71.24123 | 28022 ft | 432 kts | 235° |
| 2026-05-05 14:13 | 41.39043 | -71.27447 | 28281 ft | 434 kts | 234° |
| 2026-05-05 14:13 | 41.37351 | -71.30797 | 28543 ft | 436 kts | 234° |
| 2026-05-05 14:13 | 41.35652 | -71.34155 | 28780 ft | 438 kts | 234° |
| 2026-05-05 14:14 | 41.33975 | -71.37477 | 29012 ft | 439 kts | 234° |
| 2026-05-05 14:14 | 41.32261 | -71.40873 | 29241 ft | 441 kts | 234° |
| 2026-05-05 14:14 | 41.30551 | -71.44263 | 29554 ft | 441 kts | 235° |
| 2026-05-05 14:14 | 41.28847 | -71.47639 | 29879 ft | 440 kts | 234° |
| 2026-05-05 14:15 | 41.27140 | -71.51013 | 30189 ft | 439 kts | 234° |
| 2026-05-05 14:15 | 41.25434 | -71.54372 | 30468 ft | 438 kts | 234° |
| 2026-05-05 14:15 | 41.23729 | -71.57724 | 30759 ft | 438 kts | 235° |
| 2026-05-05 14:15 | 41.22022 | -71.61078 | 31058 ft | 436 kts | 235° |
| 2026-05-05 14:16 | 41.20324 | -71.64408 | 31341 ft | 436 kts | 235° |
| 2026-05-05 14:16 | 41.18627 | -71.67732 | 31623 ft | 435 kts | 235° |
| 2026-05-05 14:16 | 41.16927 | -71.71056 | 31896 ft | 434 kts | 235° |
| 2026-05-05 14:16 | 41.15230 | -71.74374 | 32185 ft | 433 kts | 235° |
| 2026-05-05 14:17 | 41.13542 | -71.77680 | 32454 ft | 433 kts | 236° |
| 2026-05-05 14:17 | 41.11864 | -71.80981 | 32727 ft | 432 kts | 236° |
| 2026-05-05 14:17 | 41.10184 | -71.84292 | 33006 ft | 432 kts | 236° |
| 2026-05-05 14:17 | 41.08508 | -71.87596 | 33288 ft | 431 kts | 236° |
| 2026-05-05 14:18 | 41.06834 | -71.90886 | 33580 ft | 430 kts | 236° |
| 2026-05-05 14:18 | 41.05162 | -71.94169 | 33874 ft | 429 kts | 236° |
| 2026-05-05 14:18 | 41.03535 | -71.97484 | 33976 ft | 430 kts | 241° |
| 2026-05-05 14:18 | 41.02211 | -72.01019 | 33991 ft | 430 kts | 245° |
| 2026-05-05 14:19 | 40.99684 | -72.08218 | 33991 ft | 430 kts | 245° |
| 2026-05-05 14:19 | 40.97167 | -72.15349 | 33988 ft | 431 kts | 244° |
| 2026-05-05 14:20 | 40.94626 | -72.22517 | 33990 ft | 431 kts | 244° |
| 2026-05-05 14:20 | 40.91980 | -72.29629 | 33989 ft | 429 kts | 238° |
| 2026-05-05 14:21 | 40.88148 | -72.35643 | 33984 ft | 430 kts | 225° |
| 2026-05-05 14:21 | 40.83890 | -72.41193 | 33991 ft | 430 kts | 225° |
| 2026-05-05 14:22 | 40.79591 | -72.46709 | 33988 ft | 431 kts | 220° |
| 2026-05-05 14:22 | 40.75004 | -72.51707 | 33986 ft | 431 kts | 220° |
| 2026-05-05 14:23 | 40.70359 | -72.56736 | 33984 ft | 432 kts | 220° |
| 2026-05-05 14:23 | 40.65986 | -72.62138 | 33993 ft | 431 kts | 225° |
| 2026-05-05 14:24 | 40.61733 | -72.67701 | 33989 ft | 431 kts | 225° |
| 2026-05-05 14:24 | 40.57485 | -72.73259 | 33991 ft | 431 kts | 225° |
| 2026-05-05 14:25 | 40.53236 | -72.78802 | 34003 ft | 431 kts | 225° |
| 2026-05-05 14:25 | 40.49650 | -72.83357 | 33994 ft | 431 kts | 224° |
| 2026-05-05 14:26 | 40.45222 | -72.88659 | 33990 ft | 431 kts | 223° |
| 2026-05-05 14:26 | 40.40762 | -72.93931 | 33996 ft | 431 kts | 223° |
| 2026-05-05 14:27 | 40.36335 | -72.99222 | 33997 ft | 431 kts | 223° |
| 2026-05-05 14:27 | 40.31922 | -73.04540 | 33999 ft | 430 kts | 223° |
| 2026-05-05 14:28 | 40.27512 | -73.09850 | 33991 ft | 430 kts | 223° |
| 2026-05-05 14:28 | 40.23089 | -73.15135 | 33999 ft | 430 kts | 223° |
| 2026-05-05 14:29 | 40.18670 | -73.20416 | 34001 ft | 430 kts | 223° |
| 2026-05-05 14:29 | 40.14276 | -73.25655 | 33996 ft | 430 kts | 223° |
| 2026-05-05 14:30 | 40.09850 | -73.30927 | 33996 ft | 429 kts | 223° |
| 2026-05-05 14:30 | 40.05444 | -73.36163 | 33999 ft | 429 kts | 223° |
| 2026-05-05 14:31 | 40.01025 | -73.41400 | 33998 ft | 428 kts | 223° |
| 2026-05-05 14:31 | 39.96608 | -73.46623 | 34001 ft | 428 kts | 223° |
| 2026-05-05 14:32 | 39.92203 | -73.51830 | 33988 ft | 428 kts | 223° |
| 2026-05-05 14:32 | 39.88145 | -73.57469 | 33996 ft | 427 kts | 231° |
| 2026-05-05 14:33 | 39.84388 | -73.63453 | 33999 ft | 427 kts | 231° |
| 2026-05-05 14:33 | 39.80616 | -73.69425 | 33994 ft | 426 kts | 231° |
| 2026-05-05 14:34 | 39.76847 | -73.75385 | 33995 ft | 426 kts | 231° |
| 2026-05-05 14:34 | 39.73080 | -73.81339 | 33988 ft | 426 kts | 231° |
| 2026-05-05 14:35 | 39.69345 | -73.87240 | 33991 ft | 426 kts | 231° |
| 2026-05-05 14:35 | 39.65574 | -73.93177 | 32974 ft | 430 kts | 232° |
| 2026-05-05 14:36 | 39.63630 | -73.96228 | 31702 ft | 437 kts | 232° |
| 2026-05-05 14:36 | 39.63001 | -73.97212 | 31327 ft | 438 kts | 232° |
| 2026-05-05 14:36 | 39.59748 | -74.02297 | 29401 ft | 441 kts | 232° |
| 2026-05-05 14:36 | 39.57786 | -74.05360 | 28136 ft | 442 kts | 232° |
| 2026-05-05 14:37 | 39.55846 | -74.08416 | 27386 ft | 434 kts | 234° |
| 2026-05-05 14:37 | 39.54244 | -74.11677 | 26675 ft | 425 kts | 244° |
| 2026-05-05 14:37 | 39.53163 | -74.15202 | 25965 ft | 418 kts | 254° |
| 2026-05-05 14:37 | 39.52600 | -74.18862 | 25301 ft | 413 kts | 264° |
| 2026-05-05 14:38 | 39.52530 | -74.22567 | 24641 ft | 409 kts | 271° |
| 2026-05-05 14:38 | 39.52608 | -74.26234 | 23981 ft | 406 kts | 270° |
| 2026-05-05 14:38 | 39.52679 | -74.29877 | 23291 ft | 403 kts | 270° |
| 2026-05-05 14:38 | 39.52744 | -74.33481 | 22635 ft | 398 kts | 270° |
| 2026-05-05 14:39 | 39.52808 | -74.37047 | 22046 ft | 393 kts | 270° |
| 2026-05-05 14:39 | 39.52871 | -74.40562 | 21470 ft | 388 kts | 270° |
| 2026-05-05 14:39 | 39.52935 | -74.44020 | 20916 ft | 383 kts | 270° |
| 2026-05-05 14:39 | 39.52995 | -74.47462 | 20393 ft | 378 kts | 270° |
| 2026-05-05 14:40 | 39.53051 | -74.50800 | 19880 ft | 374 kts | 270° |
| 2026-05-05 14:40 | 39.53109 | -74.54186 | 19386 ft | 369 kts | 270° |
| 2026-05-05 14:40 | 39.53163 | -74.57501 | 18899 ft | 365 kts | 270° |
| 2026-05-05 14:40 | 39.53217 | -74.60778 | 18429 ft | 361 kts | 270° |
| 2026-05-05 14:41 | 39.53269 | -74.63976 | 17931 ft | 357 kts | 270° |
| 2026-05-05 14:41 | 39.53318 | -74.67167 | 17459 ft | 352 kts | 270° |
| 2026-05-05 14:41 | 39.53366 | -74.70323 | 16996 ft | 347 kts | 270° |
| 2026-05-05 14:41 | 39.53413 | -74.73428 | 16530 ft | 343 kts | 270° |
| 2026-05-05 14:42 | 39.53461 | -74.76502 | 16062 ft | 339 kts | 270° |
| 2026-05-05 14:42 | 39.53511 | -74.79540 | 15584 ft | 335 kts | 270° |
| 2026-05-05 14:42 | 39.53559 | -74.82558 | 15100 ft | 333 kts | 269° |
| 2026-05-05 14:42 | 39.53603 | -74.85537 | 14610 ft | 330 kts | 269° |
| 2026-05-05 14:43 | 39.53646 | -74.88506 | 14121 ft | 328 kts | 269° |
| 2026-05-05 14:43 | 39.53708 | -74.91447 | 13600 ft | 327 kts | 272° |
| 2026-05-05 14:43 | 39.54160 | -74.94300 | 13074 ft | 329 kts | 285° |
| 2026-05-05 14:43 | 39.55159 | -74.96974 | 12553 ft | 333 kts | 298° |
| 2026-05-05 14:44 | 39.56678 | -74.99313 | 12003 ft | 339 kts | 312° |
| 2026-05-05 14:44 | 39.58563 | -75.01184 | 11440 ft | 343 kts | 318° |
| 2026-05-05 14:44 | 39.60503 | -75.02985 | 10867 ft | 342 kts | 318° |
| 2026-05-05 14:44 | 39.62386 | -75.04728 | 10672 ft | 330 kts | 318° |
| 2026-05-05 14:45 | 39.64220 | -75.06415 | 10558 ft | 318 kts | 319° |
| 2026-05-05 14:45 | 39.66196 | -75.07730 | 10432 ft | 315 kts | 334° |
| 2026-05-05 14:45 | 39.68300 | -75.08341 | 10285 ft | 314 kts | 349° |
| 2026-05-05 14:45 | 39.70482 | -75.08222 | 10127 ft | 316 kts | 5° |
| 2026-05-05 14:46 | 39.72590 | -75.07399 | 9850 ft | 320 kts | 21° |
| 2026-05-05 14:46 | 39.74504 | -75.05883 | 9469 ft | 323 kts | 37° |
| 2026-05-05 14:46 | 39.76088 | -75.03824 | 9103 ft | 321 kts | 46° |
| 2026-05-05 14:46 | 39.77586 | -75.01681 | 8739 ft | 320 kts | 46° |
| 2026-05-05 14:47 | 39.79074 | -74.99556 | 8374 ft | 317 kts | 46° |
| 2026-05-05 14:47 | 39.80559 | -74.97442 | 8012 ft | 315 kts | 46° |